Time;durP1;ratioP1;P1;durP2;ratioP2;P2;SDS_P1;SDS_P2;PMS_P1;PMS_P2;Temp;Humidity;BMP_temperature;BMP_pressure;BME280_temperature;BME280_humidity;BME280_pressure;Samples;Min_cycle;Max_cycle;Signal;HPM_P1;HPM_P2
2024/03/27 00:01:39;;;;;;;20.97;7.93;;;;;;;;;;5030424;28;20033;-71
2024/03/27 00:04:04;;;;;;;11.53;4.77;;;;;;;;;;5032184;28;20260;-70
2024/03/27 00:06:29;;;;;;;10.05;3.92;;;;;;;;;;5031562;28;20299;-71
2024/03/27 00:08:55;;;;;;;5.33;3.03;;;;;;;;;;5040018;28;20387;-70
2024/03/27 00:11:24;;;;;;;4.25;2.22;;;;;;;;;;5025942;28;20256;-70
2024/03/27 00:13:49;;;;;;;7.00;3.00;;;;;;;;;;5028170;28;20026;-70
2024/03/27 00:16:14;;;;;;;4.37;2.40;;;;;;;;;;5026259;28;20048;-71
2024/03/27 00:18:39;;;;;;;7.23;1.93;;;;;;;;;;5029946;28;20268;-70
2024/03/27 00:21:04;;;;;;;4.37;2.37;;;;;;;;;;5027602;28;20280;-71
2024/03/27 00:23:31;;;;;;;8.18;2.10;;;;;;;;;;5039809;28;20750;-70
2024/03/27 00:25:57;;;;;;;6.90;2.22;;;;;;;;;;5029928;28;20021;-70
2024/03/27 00:28:22;;;;;;;7.55;2.72;;;;;;;;;;5029359;28;20017;-70
2024/03/27 00:30:48;;;;;;;6.60;2.10;;;;;;;;;;5028196;28;20488;-70
2024/03/27 00:33:14;;;;;;;5.45;2.28;;;;;;;;;;5036116;28;20051;-70
2024/03/27 00:35:39;;;;;;;8.43;2.35;;;;;;;;;;5029214;28;20048;-71
2024/03/27 00:38:04;;;;;;;9.40;2.20;;;;;;;;;;5034058;28;20059;-71
2024/03/27 00:40:30;;;;;;;4.93;2.07;;;;;;;;;;5034356;28;20084;-70
2024/03/27 00:42:55;;;;;;;12.57;5.03;;;;;;;;;;5035322;28;20271;-71
2024/03/27 00:45:20;;;;;;;12.23;3.72;;;;;;;;;;5028492;28;20623;-71
2024/03/27 00:47:45;;;;;;;8.63;3.37;;;;;;;;;;5032550;28;20033;-70
2024/03/27 00:50:11;;;;;;;8.50;3.77;;;;;;;;;;5029718;28;20263;-71
2024/03/27 00:52:36;;;;;;;7.45;2.42;;;;;;;;;;5030501;28;20267;-71
2024/03/27 00:55:01;;;;;;;8.18;2.45;;;;;;;;;;5029770;28;20377;-71
2024/03/27 00:57:27;;;;;;;5.85;2.30;;;;;;;;;;5028244;28;20024;-71
2024/03/27 00:59:52;;;;;;;7.13;2.27;;;;;;;;;;5033938;28;20025;-71
2024/03/27 01:02:17;;;;;;;4.67;2.17;;;;;;;;;;5032362;28;20336;-70
2024/03/27 01:04:42;;;;;;;4.30;2.00;;;;;;;;;;5038852;28;20258;-71
2024/03/27 01:07:07;;;;;;;7.63;4.93;;;;;;;;;;5037277;28;20302;-71
2024/03/27 01:09:33;;;;;;;4.72;2.50;;;;;;;;;;5029993;28;20257;-70
2024/03/27 01:11:58;;;;;;;7.57;2.47;;;;;;;;;;5029108;28;20021;-70
2024/03/27 01:14:24;;;;;;;11.48;2.80;;;;;;;;;;5028333;28;20014;-70
2024/03/27 01:16:49;;;;;;;3.60;2.03;;;;;;;;;;5029490;28;20085;-70
2024/03/27 01:19:15;;;;;;;6.77;2.87;;;;;;;;;;5032807;28;20167;-70
2024/03/27 01:21:40;;;;;;;5.87;2.27;;;;;;;;;;5026344;28;20755;-70
2024/03/27 01:24:05;;;;;;;3.37;2.00;;;;;;;;;;5029838;28;20255;-68
2024/03/27 01:26:30;;;;;;;5.30;2.05;;;;;;;;;;5029817;28;20347;-70
2024/03/27 01:28:55;;;;;;;4.07;2.07;;;;;;;;;;5027391;28;20495;-69
2024/03/27 01:31:20;;;;;;;4.00;2.10;;;;;;;;;;5027093;28;20259;-68
2024/03/27 01:33:46;;;;;;;11.55;2.25;;;;;;;;;;5025339;28;20680;-68
2024/03/27 01:36:11;;;;;;;5.93;2.30;;;;;;;;;;5022708;28;20111;-69
2024/03/27 01:38:37;;;;;;;7.50;2.33;;;;;;;;;;5026236;28;20072;-68
2024/03/27 01:41:02;;;;;;;10.77;2.10;;;;;;;;;;5026962;28;20368;-69
2024/03/27 01:43:27;;;;;;;5.80;2.08;;;;;;;;;;5029629;28;20279;-69
2024/03/27 01:45:52;;;;;;;5.33;2.20;;;;;;;;;;5030915;28;20075;-69
2024/03/27 01:48:18;;;;;;;4.78;2.05;;;;;;;;;;5034227;28;20739;-69
2024/03/27 01:50:43;;;;;;;4.63;2.25;;;;;;;;;;5028862;28;20029;-69
2024/03/27 01:53:12;;;;;;;4.97;2.20;;;;;;;;;;5027388;28;20057;-69
2024/03/27 01:55:37;;;;;;;5.47;2.15;;;;;;;;;;5029885;28;20272;-69
2024/03/27 01:58:03;;;;;;;2.67;1.88;;;;;;;;;;5034706;28;20086;-69
2024/03/27 02:00:28;;;;;;;9.88;1.80;;;;;;;;;;5032835;28;20025;-69
2024/03/27 02:02:53;;;;;;;6.75;2.10;;;;;;;;;;5035650;28;20018;-69
2024/03/27 02:05:19;;;;;;;5.73;1.97;;;;;;;;;;5038729;28;20095;-69
2024/03/27 02:07:44;;;;;;;5.00;2.00;;;;;;;;;;5027150;28;20262;-70
2024/03/27 02:10:10;;;;;;;5.38;2.08;;;;;;;;;;5032060;28;20106;-69
2024/03/27 02:12:35;;;;;;;5.03;1.92;;;;;;;;;;5040812;28;20052;-70
2024/03/27 02:15:04;;;;;;;3.55;1.70;;;;;;;;;;5031832;28;20028;-70
2024/03/27 02:17:29;;;;;;;7.88;2.17;;;;;;;;;;5027177;28;20124;-69
2024/03/27 02:19:54;;;;;;;4.03;2.22;;;;;;;;;;5027876;28;20039;-70
2024/03/27 02:22:20;;;;;;;6.83;1.40;;;;;;;;;;5028156;28;20026;-70
2024/03/27 02:24:49;;;;;;;4.78;2.05;;;;;;;;;;5028775;28;20638;-70
2024/03/27 02:27:14;;;;;;;4.13;1.90;;;;;;;;;;5039233;28;20025;-69
2024/03/27 02:29:39;;;;;;;4.40;2.10;;;;;;;;;;5024529;28;20364;-69
2024/03/27 02:32:05;;;;;;;3.17;1.70;;;;;;;;;;5029455;28;20029;-69
2024/03/27 02:34:30;;;;;;;4.55;2.15;;;;;;;;;;5030414;28;20279;-69
2024/03/27 02:36:55;;;;;;;5.87;1.90;;;;;;;;;;5031744;28;20017;-70
2024/03/27 02:39:20;;;;;;;8.73;2.10;;;;;;;;;;5028315;28;20264;-69
2024/03/27 02:41:45;;;;;;;10.40;2.40;;;;;;;;;;5025852;28;20386;-70
2024/03/27 02:44:10;;;;;;;5.50;2.27;;;;;;;;;;5030986;28;20256;-69
2024/03/27 02:46:36;;;;;;;6.63;1.95;;;;;;;;;;5030127;28;20374;-70
2024/03/27 02:49:01;;;;;;;7.40;2.17;;;;;;;;;;5030878;28;20025;-69
2024/03/27 02:51:26;;;;;;;4.78;2.25;;;;;;;;;;5029292;28;20747;-70
2024/03/27 02:53:51;;;;;;;4.47;2.17;;;;;;;;;;5030470;28;20028;-70
2024/03/27 02:56:16;;;;;;;3.23;1.87;;;;;;;;;;5031891;28;20559;-70
2024/03/27 02:58:41;;;;;;;3.83;2.00;;;;;;;;;;5022904;28;20766;-70
2024/03/27 03:01:07;;;;;;;5.90;2.50;;;;;;;;;;5028572;28;20335;-69
2024/03/27 03:03:32;;;;;;;3.90;1.87;;;;;;;;;;5033055;28;20278;-70
2024/03/27 03:05:57;;;;;;;5.17;2.17;;;;;;;;;;5032149;28;20267;-69
2024/03/27 03:08:22;;;;;;;11.83;1.40;;;;;;;;;;5030968;28;20915;-70
2024/03/27 03:10:51;;;;;;;10.00;3.00;;;;;;;;;;5027515;28;20273;-69
2024/03/27 03:13:16;;;;;;;4.47;2.45;;;;;;;;;;5031533;28;20303;-70
2024/03/27 03:15:41;;;;;;;6.57;2.13;;;;;;;;;;5027838;28;20106;-69
2024/03/27 03:18:06;;;;;;;10.10;2.10;;;;;;;;;;5031460;28;20264;-69
2024/03/27 03:20:32;;;;;;;5.43;2.53;;;;;;;;;;5033939;28;20288;-69
2024/03/27 03:22:57;;;;;;;6.03;2.45;;;;;;;;;;5034587;28;20872;-69
2024/03/27 03:25:22;;;;;;;11.40;2.67;;;;;;;;;;5037093;28;20028;-69
2024/03/27 03:27:47;;;;;;;5.70;2.30;;;;;;;;;;5038105;28;20451;-69
2024/03/27 03:30:13;;;;;;;7.07;2.30;;;;;;;;;;5028794;28;20597;-69
2024/03/27 03:32:38;;;;;;;7.13;2.67;;;;;;;;;;5032662;28;20751;-69
2024/03/27 03:35:04;;;;;;;5.33;2.50;;;;;;;;;;5029412;28;20026;-69
2024/03/27 03:37:29;;;;;;;5.60;2.13;;;;;;;;;;5031506;28;20268;-69
2024/03/27 03:39:54;;;;;;;4.97;2.17;;;;;;;;;;5029371;28;20044;-69
2024/03/27 03:42:19;;;;;;;6.07;1.90;;;;;;;;;;5029545;28;20384;-69
2024/03/27 03:44:45;;;;;;;10.70;2.63;;;;;;;;;;5034695;28;20271;-70
2024/03/27 03:47:10;;;;;;;5.60;2.92;;;;;;;;;;5032507;28;20263;-69
2024/03/27 03:49:35;;;;;;;7.27;2.53;;;;;;;;;;5028979;28;20032;-69
2024/03/27 03:52:00;;;;;;;3.85;2.47;;;;;;;;;;5029235;28;20276;-69
2024/03/27 03:54:25;;;;;;;6.90;2.50;;;;;;;;;;5032653;28;20070;-69
2024/03/27 03:56:50;;;;;;;6.40;2.15;;;;;;;;;;5037993;28;20614;-69
2024/03/27 03:59:16;;;;;;;6.10;2.57;;;;;;;;;;5030303;28;20144;-69
2024/03/27 04:01:41;;;;;;;8.03;2.40;;;;;;;;;;5026865;28;20292;-70
2024/03/27 04:04:07;;;;;;;4.13;1.90;;;;;;;;;;5029133;28;20268;-69
2024/03/27 04:06:32;;;;;;;10.30;3.13;;;;;;;;;;5028344;28;20071;-70
2024/03/27 04:08:57;;;;;;;5.53;2.20;;;;;;;;;;5038148;28;20519;-70
2024/03/27 04:11:22;;;;;;;5.15;2.25;;;;;;;;;;5032084;28;20271;-70
2024/03/27 04:13:47;;;;;;;3.80;1.87;;;;;;;;;;5026057;28;20026;-69
2024/03/27 04:16:13;;;;;;;9.30;2.55;;;;;;;;;;5024761;28;20260;-69
2024/03/27 04:18:38;;;;;;;4.05;2.35;;;;;;;;;;5029702;28;20048;-70
2024/03/27 04:21:06;;;;;;;7.10;2.60;;;;;;;;;;5030521;28;20534;-69
2024/03/27 04:23:31;;;;;;;9.27;2.45;;;;;;;;;;5028159;28;20253;-70
2024/03/27 04:25:56;;;;;;;5.10;2.25;;;;;;;;;;5033674;28;20295;-69
2024/03/27 04:28:21;;;;;;;16.30;3.23;;;;;;;;;;5028633;28;20453;-69
2024/03/27 04:30:47;;;;;;;6.53;2.10;;;;;;;;;;5032557;28;20260;-69
2024/03/27 04:33:12;;;;;;;12.50;2.37;;;;;;;;;;5029506;28;20314;-69
2024/03/27 04:35:38;;;;;;;5.63;2.53;;;;;;;;;;5029441;28;20342;-69
2024/03/27 04:38:03;;;;;;;12.27;2.83;;;;;;;;;;5027111;28;20061;-69
2024/03/27 04:40:28;;;;;;;11.57;2.92;;;;;;;;;;5030026;28;20075;-70
2024/03/27 04:42:53;;;;;;;4.77;2.00;;;;;;;;;;5029949;28;20031;-69
2024/03/27 04:45:18;;;;;;;5.57;2.40;;;;;;;;;;5020651;28;20759;-70
2024/03/27 04:47:44;;;;;;;4.30;2.10;;;;;;;;;;5029049;28;20257;-69
2024/03/27 04:50:09;;;;;;;5.25;2.30;;;;;;;;;;5032751;28;20565;-70
2024/03/27 04:52:35;;;;;;;6.68;2.20;;;;;;;;;;5030523;28;20025;-69
2024/03/27 04:55:00;;;;;;;7.10;2.47;;;;;;;;;;5026231;28;20606;-70
2024/03/27 04:57:25;;;;;;;4.15;1.67;;;;;;;;;;5032440;28;20032;-69
2024/03/27 04:59:51;;;;;;;6.60;2.30;;;;;;;;;;5033119;28;20029;-70
2024/03/27 05:02:16;;;;;;;5.07;1.80;;;;;;;;;;5040356;28;20268;-70
2024/03/27 05:04:41;;;;;;;7.87;2.33;;;;;;;;;;5028691;28;20256;-70
2024/03/27 05:07:06;;;;;;;6.23;2.47;;;;;;;;;;5025563;28;20356;-69
2024/03/27 05:09:31;;;;;;;5.67;2.10;;;;;;;;;;5031739;28;20263;-69
2024/03/27 05:12:00;;;;;;;7.03;2.05;;;;;;;;;;5029717;28;20283;-69
2024/03/27 05:14:25;;;;;;;4.10;1.95;;;;;;;;;;5032563;28;20044;-69
2024/03/27 05:16:51;;;;;;;4.20;1.57;;;;;;;;;;5027903;28;20543;-69
2024/03/27 05:19:16;;;;;;;5.13;1.80;;;;;;;;;;5033479;28;20338;-69
2024/03/27 05:21:43;;;;;;;5.70;2.10;;;;;;;;;;5036285;28;20292;-69
2024/03/27 05:24:09;;;;;;;6.45;2.88;;;;;;;;;;5032743;28;20252;-70
2024/03/27 05:26:34;;;;;;;6.60;2.30;;;;;;;;;;5031346;28;20022;-69
2024/03/27 05:28:59;;;;;;;10.00;2.33;;;;;;;;;;5031224;28;20112;-70
2024/03/27 05:31:25;;;;;;;4.87;2.20;;;;;;;;;;5030039;28;20271;-70
2024/03/27 05:33:50;;;;;;;5.88;2.05;;;;;;;;;;5032708;28;20303;-70
2024/03/27 05:36:15;;;;;;;7.00;2.37;;;;;;;;;;5030735;28;20034;-70
2024/03/27 05:38:40;;;;;;;7.67;2.40;;;;;;;;;;5031342;28;20268;-69
2024/03/27 05:41:06;;;;;;;8.37;2.20;;;;;;;;;;5034416;28;20631;-70
2024/03/27 05:43:31;;;;;;;6.43;1.60;;;;;;;;;;5033232;28;20316;-69
2024/03/27 05:45:56;;;;;;;6.63;2.13;;;;;;;;;;5030924;28;20025;-69
2024/03/27 05:48:21;;;;;;;4.33;2.63;;;;;;;;;;5032768;28;20022;-70
2024/03/27 05:50:47;;;;;;;8.27;2.35;;;;;;;;;;5029264;28;20699;-69
2024/03/27 05:53:12;;;;;;;8.70;2.60;;;;;;;;;;5032083;28;20492;-69
2024/03/27 05:55:38;;;;;;;6.25;2.40;;;;;;;;;;5029266;28;20048;-69
2024/03/27 05:58:03;;;;;;;4.35;1.95;;;;;;;;;;5030041;28;20033;-70
2024/03/27 06:00:29;;;;;;;4.05;1.90;;;;;;;;;;5026464;28;20109;-69
2024/03/27 06:02:54;;;;;;;5.65;2.40;;;;;;;;;;5029739;28;20053;-69
2024/03/27 06:05:19;;;;;;;7.03;2.67;;;;;;;;;;5036138;28;20033;-69
2024/03/27 06:07:44;;;;;;;5.03;2.78;;;;;;;;;;5028606;28;20810;-70
2024/03/27 06:10:10;;;;;;;10.00;2.50;;;;;;;;;;5029029;28;20064;-70
2024/03/27 06:12:35;;;;;;;14.50;2.45;;;;;;;;;;5034421;28;20346;-70
2024/03/27 06:15:00;;;;;;;4.97;2.00;;;;;;;;;;5031033;28;20056;-70
2024/03/27 06:17:25;;;;;;;7.20;1.80;;;;;;;;;;5029950;28;20351;-69
2024/03/27 06:19:51;;;;;;;4.17;2.10;;;;;;;;;;5033921;28;20268;-69
2024/03/27 06:22:16;;;;;;;4.43;2.17;;;;;;;;;;5031561;28;20260;-69
2024/03/27 06:24:41;;;;;;;6.40;2.03;;;;;;;;;;5029562;28;20459;-70
2024/03/27 06:27:06;;;;;;;4.22;1.73;;;;;;;;;;5030057;28;20263;-70
2024/03/27 06:29:32;;;;;;;4.57;1.57;;;;;;;;;;5030815;28;20496;-70
2024/03/27 06:31:57;;;;;;;4.43;2.60;;;;;;;;;;5030605;28;20333;-70
2024/03/27 06:34:22;;;;;;;5.32;2.78;;;;;;;;;;5032491;28;20104;-69
2024/03/27 06:36:47;;;;;;;2.37;1.20;;;;;;;;;;5030744;28;20144;-70
2024/03/27 06:39:13;;;;;;;11.87;2.90;;;;;;;;;;5034806;28;20267;-70
2024/03/27 06:41:42;;;;;;;7.63;2.55;;;;;;;;;;5027713;28;20306;-69
2024/03/27 06:44:08;;;;;;;6.78;2.38;;;;;;;;;;5030224;28;20048;-69
2024/03/27 06:46:36;;;;;;;9.93;2.88;;;;;;;;;;5035132;28;20444;-70
2024/03/27 06:49:17;;;;;;;3.67;1.88;;;;;;;;;;5034300;28;20429;-69
2024/03/27 06:51:46;;;;;;;6.05;2.60;;;;;;;;;;5030190;28;20033;-70
2024/03/27 06:54:11;;;;;;;8.02;2.72;;;;;;;;;;5033239;28;20025;-69
2024/03/27 06:56:37;;;;;;;5.47;2.28;;;;;;;;;;5028502;28;20071;-69
2024/03/27 06:59:02;;;;;;;8.77;2.42;;;;;;;;;;5029284;28;20065;-69
2024/03/27 07:01:27;;;;;;;4.45;2.47;;;;;;;;;;5028739;28;20028;-70
2024/03/27 07:03:52;;;;;;;11.55;4.35;;;;;;;;;;5029414;28;20111;-69
2024/03/27 07:06:18;;;;;;;9.03;3.03;;;;;;;;;;5026072;28;20017;-70
2024/03/27 07:08:43;;;;;;;8.83;2.93;;;;;;;;;;5028019;28;20666;-70
2024/03/27 07:11:09;;;;;;;5.95;2.92;;;;;;;;;;5029189;28;20299;-70
2024/03/27 07:13:34;;;;;;;7.00;2.40;;;;;;;;;;5036202;28;20025;-69
2024/03/27 07:15:59;;;;;;;6.43;3.27;;;;;;;;;;5028415;28;20114;-69
2024/03/27 07:18:26;;;;;;;10.40;2.60;;;;;;;;;;5030220;28;20268;-69
2024/03/27 07:20:57;;;;;;;9.35;2.90;;;;;;;;;;5026162;28;20292;-69
2024/03/27 07:23:23;;;;;;;12.00;3.42;;;;;;;;;;5026954;28;20021;-70
2024/03/27 07:25:48;;;;;;;8.95;3.55;;;;;;;;;;5034011;28;20025;-70
2024/03/27 07:28:13;;;;;;;10.10;3.70;;;;;;;;;;5035674;28;20087;-70
2024/03/27 07:30:38;;;;;;;7.20;3.13;;;;;;;;;;5030159;28;20371;-70
2024/03/27 07:33:04;;;;;;;11.30;4.53;;;;;;;;;;5034014;28;20022;-69
2024/03/27 07:35:30;;;;;;;12.68;3.33;;;;;;;;;;5031087;28;20305;-69
2024/03/27 07:37:55;;;;;;;11.63;4.47;;;;;;;;;;5036087;28;20025;-70
2024/03/27 07:40:20;;;;;;;7.93;3.65;;;;;;;;;;5026601;28;20029;-70
2024/03/27 07:42:45;;;;;;;6.70;3.40;;;;;;;;;;5033165;28;20021;-69
2024/03/27 07:45:11;;;;;;;14.52;3.65;;;;;;;;;;5024147;28;20333;-70
2024/03/27 07:47:36;;;;;;;11.47;3.03;;;;;;;;;;5033049;28;20373;-70
2024/03/27 07:50:02;;;;;;;8.83;2.90;;;;;;;;;;5030380;28;20452;-70
2024/03/27 07:52:28;;;;;;;8.13;3.60;;;;;;;;;;5032297;28;20540;-69
2024/03/27 07:54:53;;;;;;;9.27;3.70;;;;;;;;;;5027490;28;20022;-70
2024/03/27 07:57:18;;;;;;;13.33;3.57;;;;;;;;;;5028771;28;20260;-70
2024/03/27 07:59:44;;;;;;;6.33;3.90;;;;;;;;;;5027942;28;20789;-70
2024/03/27 08:02:09;;;;;;;8.85;3.55;;;;;;;;;;5036114;28;20351;-70
2024/03/27 08:04:34;;;;;;;15.57;4.60;;;;;;;;;;5033361;28;20032;-70
2024/03/27 08:06:59;;;;;;;12.23;4.17;;;;;;;;;;5027139;28;20280;-70
2024/03/27 08:09:24;;;;;;;17.70;4.82;;;;;;;;;;5029639;28;20260;-70
2024/03/27 08:11:52;;;;;;;8.67;3.47;;;;;;;;;;5023361;28;20040;-70
2024/03/27 08:14:17;;;;;;;14.90;3.97;;;;;;;;;;5029122;28;20766;-70
2024/03/27 08:16:43;;;;;;;11.27;3.93;;;;;;;;;;5031142;28;20037;-70
2024/03/27 08:19:08;;;;;;;9.10;3.63;;;;;;;;;;5035563;28;20280;-70
2024/03/27 08:21:33;;;;;;;17.70;3.93;;;;;;;;;;5025228;28;20289;-70
2024/03/27 08:23:58;;;;;;;14.73;4.10;;;;;;;;;;5029433;28;20263;-70
2024/03/27 08:26:24;;;;;;;7.90;3.97;;;;;;;;;;5029612;28;20495;-70
2024/03/27 08:28:49;;;;;;;17.23;3.92;;;;;;;;;;5031602;28;20076;-70
2024/03/27 08:31:14;;;;;;;10.30;3.67;;;;;;;;;;5031467;28;20574;-70
2024/03/27 08:33:40;;;;;;;12.50;3.95;;;;;;;;;;5027253;28;20261;-70
2024/03/27 08:36:05;;;;;;;17.00;5.53;;;;;;;;;;5026359;28;20029;-70
2024/03/27 08:38:30;;;;;;;8.02;3.45;;;;;;;;;;5031764;28;20315;-70
2024/03/27 08:40:56;;;;;;;5.30;2.80;;;;;;;;;;5026098;28;20131;-71
2024/03/27 08:43:21;;;;;;;10.73;2.63;;;;;;;;;;5028469;28;20020;-70
2024/03/27 08:45:47;;;;;;;5.30;2.87;;;;;;;;;;5027325;28;20407;-70
2024/03/27 08:48:12;;;;;;;10.73;3.33;;;;;;;;;;5027900;28;20264;-70
2024/03/27 08:50:38;;;;;;;7.65;3.33;;;;;;;;;;5030272;28;20256;-70
2024/03/27 08:53:03;;;;;;;6.93;2.60;;;;;;;;;;5029358;28;20033;-70
2024/03/27 08:55:28;;;;;;;7.32;3.25;;;;;;;;;;5029152;28;20335;-70
2024/03/27 08:57:54;;;;;;;7.15;2.58;;;;;;;;;;5031280;28;20049;-70
2024/03/27 09:00:20;;;;;;;7.03;3.40;;;;;;;;;;5033575;28;20121;-70
2024/03/27 09:02:48;;;;;;;7.75;3.10;;;;;;;;;;5032020;28;20260;-70
2024/03/27 09:05:16;;;;;;;5.78;3.55;;;;;;;;;;5028978;28;20052;-70
2024/03/27 09:07:41;;;;;;;5.82;2.47;;;;;;;;;;5029127;28;20021;-70
2024/03/27 09:10:06;;;;;;;4.60;1.93;;;;;;;;;;5028216;28;20025;-70
2024/03/27 09:12:32;;;;;;;11.23;2.25;;;;;;;;;;5034747;28;20519;-70
2024/03/27 09:14:57;;;;;;;3.80;1.83;;;;;;;;;;5034124;28;20027;-70
2024/03/27 09:17:22;;;;;;;4.63;2.05;;;;;;;;;;5028611;28;20750;-70
2024/03/27 09:19:49;;;;;;;4.80;2.03;;;;;;;;;;5029030;28;20017;-70
2024/03/27 09:22:14;;;;;;;8.90;1.40;;;;;;;;;;5031453;28;20033;-71
2024/03/27 09:24:39;;;;;;;10.37;1.77;;;;;;;;;;5029054;28;20018;-70
2024/03/27 09:27:05;;;;;;;3.33;1.70;;;;;;;;;;5031056;28;20647;-70
2024/03/27 09:29:30;;;;;;;9.37;1.83;;;;;;;;;;5028456;28;20303;-70
2024/03/27 09:31:55;;;;;;;2.40;1.23;;;;;;;;;;5029163;28;20569;-70
2024/03/27 09:34:20;;;;;;;7.20;1.30;;;;;;;;;;5022539;28;20318;-71
2024/03/27 09:36:45;;;;;;;1.73;1.03;;;;;;;;;;5028201;28;20589;-70
2024/03/27 09:39:11;;;;;;;2.65;1.13;;;;;;;;;;5030515;28;20259;-70
2024/03/27 09:41:36;;;;;;;1.90;1.00;;;;;;;;;;5028417;28;20025;-70
2024/03/27 09:44:03;;;;;;;3.65;1.33;;;;;;;;;;5026463;28;20355;-70
2024/03/27 09:46:28;;;;;;;3.78;1.33;;;;;;;;;;5031432;28;20430;-70
2024/03/27 09:48:56;;;;;;;1.73;1.27;;;;;;;;;;5026450;28;20080;-70
2024/03/27 09:51:22;;;;;;;6.05;1.50;;;;;;;;;;5026023;28;20260;-70
2024/03/27 09:53:47;;;;;;;5.25;1.52;;;;;;;;;;5028425;28;20034;-70
2024/03/27 09:56:12;;;;;;;2.37;1.30;;;;;;;;;;5030335;28;20060;-70
2024/03/27 09:58:37;;;;;;;2.33;1.63;;;;;;;;;;5026896;28;20256;-70
2024/03/27 10:01:04;;;;;;;5.45;1.50;;;;;;;;;;5027802;28;20857;-71
2024/03/27 10:03:29;;;;;;;2.67;1.40;;;;;;;;;;5027355;28;20104;-70
2024/03/27 10:05:57;;;;;;;2.55;1.25;;;;;;;;;;5028331;28;20425;-70
2024/03/27 10:08:24;;;;;;;3.17;2.08;;;;;;;;;;5026602;28;20033;-70
2024/03/27 10:10:50;;;;;;;3.33;1.70;;;;;;;;;;5034777;28;20025;-70
2024/03/27 10:13:18;;;;;;;4.70;1.80;;;;;;;;;;5034804;28;20108;-71
2024/03/27 10:15:46;;;;;;;2.85;1.90;;;;;;;;;;5024880;28;20083;-71
2024/03/27 10:18:12;;;;;;;4.57;1.92;;;;;;;;;;5023410;28;20075;-69
2024/03/27 10:20:37;;;;;;;6.63;1.77;;;;;;;;;;5032112;28;20160;-70
2024/03/27 10:23:03;;;;;;;2.23;1.53;;;;;;;;;;5029376;28;20261;-70
2024/03/27 10:25:28;;;;;;;4.43;1.65;;;;;;;;;;5032145;28;20022;-70
2024/03/27 10:27:53;;;;;;;4.50;2.17;;;;;;;;;;5033057;28;20018;-70
2024/03/27 10:30:20;;;;;;;8.50;3.13;;;;;;;;;;5035678;28;20503;-70
2024/03/27 10:32:45;;;;;;;7.05;1.73;;;;;;;;;;5029075;28;20315;-70
2024/03/27 10:35:11;;;;;;;3.73;2.30;;;;;;;;;;5024393;28;20046;-70
2024/03/27 10:37:37;;;;;;;7.70;1.98;;;;;;;;;;5034125;28;20287;-70
2024/03/27 10:40:03;;;;;;;4.63;2.50;;;;;;;;;;5025245;28;20524;-70
2024/03/27 10:42:29;;;;;;;3.88;2.30;;;;;;;;;;5027144;28;20060;-70
2024/03/27 10:44:55;;;;;;;3.47;2.13;;;;;;;;;;5036974;28;20029;-70
2024/03/27 10:47:22;;;;;;;6.43;2.70;;;;;;;;;;5030451;28;20100;-70
2024/03/27 10:49:47;;;;;;;8.13;2.95;;;;;;;;;;5027806;28;20086;-70
2024/03/27 10:52:15;;;;;;;6.15;2.78;;;;;;;;;;5031487;28;20033;-70
2024/03/27 10:54:42;;;;;;;3.58;2.20;;;;;;;;;;5031701;28;20532;-70
2024/03/27 10:57:08;;;;;;;4.50;2.45;;;;;;;;;;5031186;28;20026;-70
2024/03/27 10:59:34;;;;;;;4.63;2.92;;;;;;;;;;5033609;28;20037;-70
2024/03/27 11:02:02;;;;;;;3.75;2.25;;;;;;;;;;5035058;28;20024;-70
2024/03/27 11:04:30;;;;;;;7.20;2.90;;;;;;;;;;5029078;28;20021;-70
2024/03/27 11:06:56;;;;;;;4.75;2.60;;;;;;;;;;5035309;28;20021;-70
2024/03/27 11:09:22;;;;;;;4.65;2.83;;;;;;;;;;5035770;28;20021;-70
2024/03/27 11:11:47;;;;;;;5.28;3.08;;;;;;;;;;5033416;28;20071;-70
2024/03/27 11:14:17;;;;;;;5.07;2.70;;;;;;;;;;5030825;28;20032;-70
2024/03/27 11:17:02;;;;;;;6.20;2.80;;;;;;;;;;5035946;28;20279;-70
2024/03/27 11:19:31;;;;;;;5.15;3.63;;;;;;;;;;5028332;28;20025;-70
2024/03/27 11:22:00;;;;;;;6.30;3.67;;;;;;;;;;5029325;28;20491;-70
2024/03/27 11:24:25;;;;;;;4.43;2.88;;;;;;;;;;5032945;28;20036;-70
2024/03/27 11:26:57;;;;;;;6.10;3.43;;;;;;;;;;5023492;28;20013;-70
2024/03/27 11:29:29;;;;;;;7.30;3.67;;;;;;;;;;5025617;28;20654;-70
2024/03/27 11:31:56;;;;;;;8.18;4.80;;;;;;;;;;5029596;28;20083;-70
2024/03/27 11:34:22;;;;;;;8.55;4.88;;;;;;;;;;5030183;28;20067;-70
2024/03/27 11:36:47;;;;;;;8.27;4.57;;;;;;;;;;5029827;28;20057;-70
2024/03/27 11:39:15;;;;;;;9.48;4.25;;;;;;;;;;5029945;28;20065;-70
2024/03/27 11:41:40;;;;;;;8.25;4.20;;;;;;;;;;5025277;28;20022;-70
2024/03/27 11:44:05;;;;;;;9.80;6.68;;;;;;;;;;5030549;28;20079;-70
2024/03/27 11:46:31;;;;;;;8.93;5.90;;;;;;;;;;5029999;28;20033;-70
2024/03/27 11:48:56;;;;;;;9.40;5.40;;;;;;;;;;5032209;28;20362;-69
2024/03/27 11:51:21;;;;;;;6.95;4.53;;;;;;;;;;5028478;28;20067;-70
2024/03/27 11:53:47;;;;;;;7.80;4.40;;;;;;;;;;5032100;28;20026;-70
2024/03/27 11:56:12;;;;;;;8.77;5.03;;;;;;;;;;5029844;28;20033;-70
2024/03/27 11:58:37;;;;;;;8.37;5.50;;;;;;;;;;5029865;28;20356;-70
2024/03/27 12:01:03;;;;;;;6.85;3.97;;;;;;;;;;5030406;28;20287;-70
2024/03/27 12:03:28;;;;;;;6.68;3.70;;;;;;;;;;5029283;28;20021;-70
2024/03/27 12:05:54;;;;;;;5.65;3.13;;;;;;;;;;5029207;28;20017;-70
2024/03/27 12:08:19;;;;;;;4.45;2.75;;;;;;;;;;5028358;28;20094;-70
2024/03/27 12:10:45;;;;;;;4.03;2.35;;;;;;;;;;5032539;28;20017;-70
2024/03/27 12:13:10;;;;;;;4.30;2.50;;;;;;;;;;5032080;28;20044;-70
2024/03/27 12:15:37;;;;;;;5.20;2.33;;;;;;;;;;5031826;28;20059;-70
2024/03/27 12:18:03;;;;;;;3.38;2.38;;;;;;;;;;5034263;28;20279;-70
2024/03/27 12:20:31;;;;;;;4.07;3.15;;;;;;;;;;5029022;28;20472;-70
2024/03/27 12:22:57;;;;;;;3.20;2.67;;;;;;;;;;5030153;28;20021;-70
2024/03/27 12:25:22;;;;;;;3.15;2.28;;;;;;;;;;5030736;28;20021;-70
2024/03/27 12:27:49;;;;;;;5.15;3.30;;;;;;;;;;5029853;28;20022;-69
2024/03/27 12:30:18;;;;;;;4.35;3.28;;;;;;;;;;5029532;28;20119;-70
2024/03/27 12:32:44;;;;;;;6.10;3.70;;;;;;;;;;5041046;28;20021;-70
2024/03/27 12:35:09;;;;;;;6.10;3.67;;;;;;;;;;5028921;28;20025;-70
2024/03/27 12:37:34;;;;;;;6.00;3.50;;;;;;;;;;5030247;28;20021;-70
2024/03/27 12:39:59;;;;;;;5.97;3.90;;;;;;;;;;5032433;28;20275;-70
2024/03/27 12:42:25;;;;;;;6.32;3.50;;;;;;;;;;5031212;28;20268;-69
2024/03/27 12:44:50;;;;;;;5.37;2.97;;;;;;;;;;5029602;28;20033;-70
2024/03/27 12:47:17;;;;;;;5.20;2.78;;;;;;;;;;5033133;28;20336;-70
2024/03/27 12:49:42;;;;;;;3.85;2.55;;;;;;;;;;5029208;28;20122;-70
2024/03/27 12:52:07;;;;;;;4.33;2.23;;;;;;;;;;5028807;28;20446;-70
2024/03/27 12:54:32;;;;;;;7.50;2.20;;;;;;;;;;5028141;28;20288;-70
2024/03/27 12:56:58;;;;;;;6.03;2.00;;;;;;;;;;5029097;28;20334;-70
2024/03/27 12:59:23;;;;;;;5.60;2.60;;;;;;;;;;5028547;28;20350;-70
2024/03/27 13:01:48;;;;;;;6.03;2.47;;;;;;;;;;5033538;28;20030;-70
2024/03/27 13:04:13;;;;;;;9.17;2.90;;;;;;;;;;5032677;28;20280;-70
2024/03/27 13:06:38;;;;;;;4.72;3.03;;;;;;;;;;5024822;28;20272;-70
2024/03/27 13:09:04;;;;;;;4.32;3.03;;;;;;;;;;5029123;28;20093;-69
2024/03/27 13:11:29;;;;;;;5.03;2.78;;;;;;;;;;5031985;28;20030;-70
2024/03/27 13:13:54;;;;;;;4.13;2.00;;;;;;;;;;5028960;28;20033;-70
2024/03/27 13:16:20;;;;;;;1.58;1.00;;;;;;;;;;5032931;28;20071;-70
2024/03/27 13:18:45;;;;;;;3.22;1.00;;;;;;;;;;5027713;28;20037;-70
2024/03/27 13:21:10;;;;;;;2.13;1.17;;;;;;;;;;5026536;28;20036;-70
2024/03/27 13:23:36;;;;;;;3.95;2.05;;;;;;;;;;5029273;28;20313;-70
2024/03/27 13:26:02;;;;;;;7.63;2.90;;;;;;;;;;5028067;28;20026;-70
2024/03/27 13:28:27;;;;;;;7.70;3.67;;;;;;;;;;5030107;28;20029;-70
2024/03/27 13:30:52;;;;;;;7.17;4.10;;;;;;;;;;5029150;28;20026;-70
2024/03/27 13:33:18;;;;;;;6.43;3.73;;;;;;;;;;5030533;28;20264;-70
2024/03/27 13:35:43;;;;;;;3.47;2.00;;;;;;;;;;5032673;28;20272;-70
2024/03/27 13:38:08;;;;;;;6.83;1.53;;;;;;;;;;5029296;28;20267;-69
2024/03/27 13:40:33;;;;;;;0.83;0.40;;;;;;;;;;5030156;28;20837;-69
2024/03/27 13:42:58;;;;;;;4.10;1.50;;;;;;;;;;5028790;28;20274;-70
2024/03/27 13:45:23;;;;;;;2.30;1.00;;;;;;;;;;5036010;28;20674;-70
2024/03/27 13:47:53;;;;;;;1.13;0.80;;;;;;;;;;5032547;28;20025;-69
2024/03/27 13:50:19;;;;;;;7.65;1.60;;;;;;;;;;5033471;28;20291;-70
2024/03/27 13:52:44;;;;;;;2.67;2.08;;;;;;;;;;5032254;28;20023;-70
2024/03/27 13:55:09;;;;;;;3.80;2.37;;;;;;;;;;5032402;28;20076;-69
2024/03/27 13:57:34;;;;;;;5.07;3.27;;;;;;;;;;5035549;28;20359;-70
2024/03/27 13:59:59;;;;;;;4.40;3.03;;;;;;;;;;5035173;28;20272;-70
2024/03/27 14:02:24;;;;;;;5.78;3.25;;;;;;;;;;5034325;28;20017;-70
2024/03/27 14:04:50;;;;;;;3.53;2.60;;;;;;;;;;5032163;28;20021;-69
2024/03/27 14:07:15;;;;;;;5.23;3.10;;;;;;;;;;5032168;28;20252;-70
2024/03/27 14:09:40;;;;;;;6.70;4.87;;;;;;;;;;5032250;28;20253;-70
2024/03/27 14:12:05;;;;;;;6.37;3.67;;;;;;;;;;5033784;28;20291;-70
2024/03/27 14:14:30;;;;;;;5.93;3.37;;;;;;;;;;5032023;28;20260;-69
2024/03/27 14:16:55;;;;;;;5.10;3.20;;;;;;;;;;5032743;28;20280;-69
2024/03/27 14:19:21;;;;;;;5.33;3.40;;;;;;;;;;5031277;28;20260;-70
2024/03/27 14:21:46;;;;;;;4.57;3.00;;;;;;;;;;5033567;28;20838;-70
2024/03/27 14:24:12;;;;;;;4.20;3.03;;;;;;;;;;5032111;28;20325;-70
2024/03/27 14:26:38;;;;;;;5.07;2.63;;;;;;;;;;5032904;28;20249;-70
2024/03/27 14:29:03;;;;;;;4.32;1.40;;;;;;;;;;5032058;28;20024;-70
2024/03/27 14:31:29;;;;;;;4.63;1.50;;;;;;;;;;5034284;28;20030;-70